createdAt,value
2018-12-29T00:00:56.035Z,1013.54
2018-12-29T00:01:56.061Z,1013.57
2018-12-29T00:02:56.086Z,1013.61
2018-12-29T00:03:56.116Z,1013.61
2018-12-29T00:04:56.132Z,1013.58
2018-12-29T00:05:56.156Z,1013.57
2018-12-29T00:06:56.180Z,1013.59
2018-12-29T00:07:56.207Z,1013.56
2018-12-29T00:08:56.235Z,1013.62
2018-12-29T00:09:56.254Z,1013.63
2018-12-29T00:10:56.277Z,1013.63
2018-12-29T00:11:56.300Z,1013.66
2018-12-29T00:12:56.326Z,1013.63
2018-12-29T00:13:56.350Z,1013.58
2018-12-29T00:14:56.375Z,1013.57
2018-12-29T00:15:56.398Z,1013.53
2018-12-29T00:16:56.422Z,1013.59
2018-12-29T00:17:56.446Z,1013.53
2018-12-29T00:18:56.471Z,1013.61
2018-12-29T00:19:56.500Z,1013.53
2018-12-29T00:20:56.519Z,1013.55
2018-12-29T00:21:56.543Z,1013.52
2018-12-29T00:22:56.569Z,1013.54
2018-12-29T00:23:56.592Z,1013.55
2018-12-29T00:24:56.615Z,1013.58
2018-12-29T00:25:56.640Z,1013.56
2018-12-29T00:26:56.666Z,1013.62
2018-12-29T00:27:56.688Z,1013.66
2018-12-29T00:28:56.712Z,1013.71
2018-12-29T00:29:56.737Z,1013.76
2018-12-29T00:30:56.762Z,1013.78
2018-12-29T00:31:56.785Z,1013.77
2018-12-29T00:32:56.811Z,1013.82
2018-12-29T00:33:56.835Z,1013.76
2018-12-29T00:34:56.859Z,1013.75
2018-12-29T00:35:56.883Z,1013.79
2018-12-29T00:36:56.907Z,1013.76
2018-12-29T00:37:56.932Z,1013.73
2018-12-29T00:38:56.957Z,1013.79
2018-12-29T00:39:56.979Z,1013.81
2018-12-29T00:40:57.003Z,1013.82
2018-12-29T00:41:57.028Z,1013.85
2018-12-29T00:42:57.052Z,1013.81
2018-12-29T00:43:57.076Z,1013.77
2018-12-29T00:45:02.505Z,1013.71
2018-12-29T00:45:57.125Z,1013.71
2018-12-29T00:46:57.150Z,1013.77
2018-12-29T00:47:57.173Z,1013.79
2018-12-29T00:48:57.198Z,1013.83
2018-12-29T00:49:57.222Z,1013.90
2018-12-29T00:50:57.247Z,1013.95
2018-12-29T00:51:57.270Z,1013.97
2018-12-29T00:52:57.295Z,1013.99
2018-12-29T00:53:57.319Z,1013.96
2018-12-29T00:54:57.345Z,1013.89
2018-12-29T00:55:57.368Z,1013.87
2018-12-29T00:56:57.393Z,1013.77
2018-12-29T00:57:57.416Z,1013.71
2018-12-29T00:58:57.441Z,1013.66
2018-12-29T00:59:57.465Z,1013.64
2018-12-29T01:00:57.490Z,1013.72
2018-12-29T01:01:57.513Z,1013.73
2018-12-29T01:02:57.541Z,1013.77
2018-12-29T01:03:57.561Z,1013.82
2018-12-29T01:04:57.586Z,1013.79
2018-12-29T01:05:57.609Z,1013.79
2018-12-29T01:06:57.635Z,1013.81
2018-12-29T01:07:57.659Z,1013.89
2018-12-29T01:08:57.682Z,1013.99
2018-12-29T01:09:57.706Z,1014.02
2018-12-29T01:10:57.732Z,1014.00
2018-12-29T01:11:57.754Z,1014.04
2018-12-29T01:12:57.779Z,1014.12
2018-12-29T01:13:57.802Z,1014.15
2018-12-29T01:14:57.829Z,1014.17
2018-12-29T01:15:57.851Z,1014.21
2018-12-29T01:16:57.875Z,1014.25
2018-12-29T01:17:57.899Z,1014.25
2018-12-29T01:18:57.923Z,1014.25
2018-12-29T01:19:57.948Z,1014.19
2018-12-29T01:20:57.971Z,1014.24
2018-12-29T01:21:57.995Z,1014.19
2018-12-29T01:22:58.020Z,1014.21
2018-12-29T01:23:58.044Z,1014.18
2018-12-29T01:24:58.067Z,1014.16
2018-12-29T01:25:58.095Z,1014.15
2018-12-29T01:26:58.118Z,1014.15
2018-12-29T01:27:58.142Z,1014.18
2018-12-29T01:28:58.164Z,1014.16
2018-12-29T01:29:58.191Z,1014.16
2018-12-29T01:30:58.213Z,1014.21
2018-12-29T01:31:58.237Z,1014.31
2018-12-29T01:32:58.262Z,1014.29
2018-12-29T01:33:58.286Z,1014.34
2018-12-29T01:34:58.311Z,1014.30
2018-12-29T01:35:58.333Z,1014.30
2018-12-29T01:36:58.359Z,1014.32
2018-12-29T01:37:58.382Z,1014.27
2018-12-29T01:38:58.408Z,1014.28
2018-12-29T01:39:58.430Z,1014.27
2018-12-29T01:40:58.456Z,1014.26
2018-12-29T01:41:58.479Z,1014.35
2018-12-29T01:42:58.503Z,1014.42
2018-12-29T01:43:58.528Z,1014.45
2018-12-29T01:44:58.552Z,1014.42
2018-12-29T01:45:58.576Z,1014.32
2018-12-29T01:46:58.600Z,1014.31
2018-12-29T01:47:58.624Z,1014.36
2018-12-29T01:48:58.648Z,1014.35
2018-12-29T01:49:58.673Z,1014.40
2018-12-29T01:50:58.699Z,1014.44
2018-12-29T01:51:58.720Z,1014.45
2018-12-29T01:52:58.745Z,1014.43
2018-12-29T01:53:58.769Z,1014.37
2018-12-29T01:54:58.794Z,1014.39
2018-12-29T01:55:58.821Z,1014.41
2018-12-29T01:56:58.842Z,1014.44
2018-12-29T01:57:58.867Z,1014.36
2018-12-29T01:58:58.891Z,1014.31
2018-12-29T01:59:58.914Z,1014.25
2018-12-29T02:00:58.939Z,1014.27
2018-12-29T02:01:58.965Z,1014.26
2018-12-29T02:02:58.989Z,1014.29
2018-12-29T02:03:59.011Z,1014.25
2018-12-29T02:04:59.036Z,1014.25
2018-12-29T02:05:59.062Z,1014.25
2018-12-29T02:06:59.084Z,1014.28
2018-12-29T02:07:59.110Z,1014.28
2018-12-29T02:08:59.136Z,1014.25
2018-12-29T02:09:59.158Z,1014.21
2018-12-29T02:10:59.181Z,1014.19
2018-12-29T02:11:59.207Z,1014.23
2018-12-29T02:12:59.229Z,1014.22
2018-12-29T02:13:59.257Z,1014.28
2018-12-29T02:14:59.280Z,1014.24
2018-12-29T02:15:59.302Z,1014.18
2018-12-29T02:16:59.327Z,1014.20
2018-12-29T02:17:59.353Z,1014.26
2018-12-29T02:18:59.418Z,1014.30
2018-12-29T02:19:59.500Z,1014.21
2018-12-29T02:20:59.426Z,1014.23
2018-12-29T02:21:59.449Z,1014.18
2018-12-29T02:22:59.475Z,1014.13
2018-12-29T02:23:59.497Z,1014.10
2018-12-29T02:24:59.522Z,1014.09
2018-12-29T02:25:59.545Z,1014.04
2018-12-29T02:26:59.570Z,1014.04
2018-12-29T02:27:59.657Z,1013.99
2018-12-29T02:28:59.618Z,1013.94
2018-12-29T02:29:59.644Z,1014.00
2018-12-29T02:30:59.668Z,1014.01
2018-12-29T02:31:59.691Z,1014.05
2018-12-29T02:32:59.717Z,1014.05
2018-12-29T02:33:59.742Z,1014.10
2018-12-29T02:34:59.764Z,1014.08
2018-12-29T02:35:59.793Z,1014.11
2018-12-29T02:36:59.813Z,1014.07
2018-12-29T02:37:59.836Z,1014.08
2018-12-29T02:38:59.862Z,1014.11
2018-12-29T02:39:59.887Z,1014.15
2018-12-29T02:40:59.911Z,1014.16
2018-12-29T02:41:59.933Z,1014.09
2018-12-29T02:42:59.958Z,1014.03
2018-12-29T02:43:59.984Z,1014.04
2018-12-29T02:45:00.007Z,1014.00
2018-12-29T02:46:00.033Z,1014.01
2018-12-29T02:47:00.072Z,1013.95
2018-12-29T02:48:00.079Z,1013.90
2018-12-29T02:49:00.103Z,1013.90
2018-12-29T02:50:00.383Z,1013.87
2018-12-29T02:51:00.153Z,1013.86
2018-12-29T02:52:00.177Z,1013.91
2018-12-29T02:53:01.175Z,1013.87
2018-12-29T02:54:00.225Z,1013.76
2018-12-29T02:55:00.250Z,1013.78
2018-12-29T02:56:00.278Z,1013.70
2018-12-29T02:57:00.299Z,1013.74
2018-12-29T02:58:00.325Z,1013.70
2018-12-29T02:59:00.347Z,1013.76
2018-12-29T03:00:00.371Z,1013.72
2018-12-29T03:01:00.414Z,1013.69
2018-12-29T03:02:00.421Z,1013.72
2018-12-29T03:03:00.444Z,1013.80
2018-12-29T03:04:00.469Z,1013.81
2018-12-29T03:05:00.494Z,1013.81
2018-12-29T03:06:00.517Z,1013.81
2018-12-29T03:07:00.546Z,1013.83
2018-12-29T03:08:00.567Z,1013.87
2018-12-29T03:09:00.590Z,1013.89
2018-12-29T03:10:00.622Z,1013.87
2018-12-29T03:11:00.643Z,1013.87
2018-12-29T03:12:00.664Z,1013.81
2018-12-29T03:13:00.687Z,1013.82
2018-12-29T03:14:00.713Z,1013.85
2018-12-29T03:15:00.737Z,1013.86
2018-12-29T03:16:00.761Z,1013.92
2018-12-29T03:17:00.786Z,1013.94
2018-12-29T03:18:00.812Z,1013.91
2018-12-29T03:19:00.837Z,1013.88
2018-12-29T03:20:00.858Z,1013.86
2018-12-29T03:21:00.884Z,1013.88
2018-12-29T03:22:00.909Z,1013.88
2018-12-29T03:23:00.931Z,1013.93
2018-12-29T03:24:00.957Z,1013.99
2018-12-29T03:25:00.980Z,1013.99
2018-12-29T03:26:01.004Z,1014.07
2018-12-29T03:27:01.029Z,1014.09
2018-12-29T03:28:01.052Z,1014.15
2018-12-29T03:29:01.079Z,1014.12
2018-12-29T03:30:01.105Z,1014.07
2018-12-29T03:31:01.127Z,1013.99
2018-12-29T03:32:01.154Z,1013.93
2018-12-29T03:33:01.176Z,1013.97
2018-12-29T03:34:01.198Z,1014.06
2018-12-29T03:35:01.225Z,1014.08
2018-12-29T03:36:01.248Z,1014.11
2018-12-29T03:37:01.274Z,1014.14
2018-12-29T03:38:01.298Z,1014.17
2018-12-29T03:39:01.320Z,1014.17
2018-12-29T03:40:01.345Z,1014.16
2018-12-29T03:41:01.369Z,1014.12
2018-12-29T03:42:01.393Z,1014.16
2018-12-29T03:43:01.418Z,1014.16
2018-12-29T03:44:01.443Z,1014.21
2018-12-29T03:45:01.526Z,1014.15
2018-12-29T03:46:01.496Z,1014.11
2018-12-29T03:47:01.515Z,1014.09
2018-12-29T03:48:01.537Z,1014.10
2018-12-29T03:49:01.563Z,1014.15
2018-12-29T03:50:01.586Z,1014.24
2018-12-29T03:51:01.695Z,1014.25
2018-12-29T03:52:01.633Z,1014.27
2018-12-29T03:53:01.663Z,1014.24
2018-12-29T03:54:01.683Z,1014.22
2018-12-29T03:55:01.707Z,1014.16
2018-12-29T03:56:01.730Z,1014.14
2018-12-29T03:57:01.762Z,1014.08
2018-12-29T03:58:01.780Z,1014.14
2018-12-29T03:59:01.810Z,1014.18
2018-12-29T04:00:01.897Z,1014.18
2018-12-29T04:01:01.851Z,1014.17
2018-12-29T04:02:01.881Z,1014.16
2018-12-29T04:03:01.900Z,1014.10
2018-12-29T04:04:01.930Z,1014.09
2018-12-29T04:05:01.951Z,1014.09
2018-12-29T04:06:01.972Z,1014.07
2018-12-29T04:07:01.998Z,1014.04
2018-12-29T04:08:02.019Z,1014.04
2018-12-29T04:09:02.046Z,1013.98
2018-12-29T04:10:02.074Z,1014.02
2018-12-29T04:11:02.094Z,1014.07
2018-12-29T04:12:02.124Z,1014.07
2018-12-29T04:13:02.144Z,1014.11
2018-12-29T04:14:02.166Z,1014.09
2018-12-29T04:15:02.226Z,1014.10
2018-12-29T04:16:02.214Z,1014.06
2018-12-29T04:17:02.239Z,1014.00
2018-12-29T04:18:02.264Z,1013.97
2018-12-29T04:19:02.287Z,1013.91
2018-12-29T04:20:02.320Z,1013.86
2018-12-29T04:21:02.335Z,1013.84
2018-12-29T04:22:02.361Z,1013.82
2018-12-29T04:23:02.385Z,1013.90
2018-12-29T04:24:02.410Z,1013.93
2018-12-29T04:25:02.433Z,1013.92
2018-12-29T04:26:02.457Z,1013.92
2018-12-29T04:27:02.481Z,1013.94
2018-12-29T04:28:02.506Z,1013.90
2018-12-29T04:29:02.530Z,1013.88
2018-12-29T04:30:02.556Z,1013.89
2018-12-29T04:31:02.579Z,1013.89
2018-12-29T04:32:02.607Z,1013.83
2018-12-29T04:33:02.627Z,1013.85
2018-12-29T04:34:02.653Z,1013.87
2018-12-29T04:35:02.677Z,1013.88
2018-12-29T04:36:02.700Z,1013.91
2018-12-29T04:37:02.725Z,1013.88
2018-12-29T04:38:02.749Z,1013.92
2018-12-29T04:39:02.774Z,1013.88
2018-12-29T04:40:02.799Z,1013.81
2018-12-29T04:41:02.823Z,1013.78
2018-12-29T04:42:02.846Z,1013.72
2018-12-29T04:43:02.872Z,1013.77
2018-12-29T04:44:02.893Z,1013.71
2018-12-29T04:45:02.919Z,1013.72
2018-12-29T04:46:05.412Z,1013.72
2018-12-29T04:47:02.969Z,1013.77
2018-12-29T04:48:02.993Z,1013.79
2018-12-29T04:49:03.017Z,1013.78
2018-12-29T04:50:03.042Z,1013.86
2018-12-29T04:51:03.067Z,1013.89
2018-12-29T04:52:03.090Z,1013.91
2018-12-29T04:53:03.114Z,1014.01
2018-12-29T04:54:03.140Z,1014.05
2018-12-29T04:55:03.163Z,1014.09
2018-12-29T04:56:03.187Z,1014.10
2018-12-29T04:57:03.211Z,1014.09
2018-12-29T04:58:03.237Z,1014.12
2018-12-29T04:59:03.261Z,1014.13
2018-12-29T05:00:03.283Z,1014.11
2018-12-29T05:01:03.359Z,1014.13
2018-12-29T05:02:03.333Z,1014.13
2018-12-29T05:03:03.358Z,1014.17
2018-12-29T05:04:03.380Z,1014.17
2018-12-29T05:05:03.406Z,1014.13
2018-12-29T05:06:03.429Z,1014.14
2018-12-29T05:07:03.453Z,1014.16
2018-12-29T05:08:03.478Z,1014.20
2018-12-29T05:09:03.506Z,1014.19
2018-12-29T05:10:06.783Z,1014.21
2018-12-29T05:11:03.551Z,1014.20
2018-12-29T05:12:03.574Z,1014.19
2018-12-29T05:13:03.599Z,1014.16
2018-12-29T05:14:03.622Z,1014.20
2018-12-29T05:15:03.648Z,1014.22
2018-12-29T05:16:03.672Z,1014.22
2018-12-29T05:17:03.695Z,1014.23
2018-12-29T05:18:03.721Z,1014.24
2018-12-29T05:19:03.748Z,1014.20
2018-12-29T05:20:03.769Z,1014.22
2018-12-29T05:21:03.792Z,1014.20
2018-12-29T05:22:03.815Z,1014.19
2018-12-29T05:23:03.842Z,1014.19
2018-12-29T05:24:03.864Z,1014.19
2018-12-29T05:25:03.889Z,1014.22
2018-12-29T05:26:03.915Z,1014.24
2018-12-29T05:27:03.938Z,1014.25
2018-12-29T05:28:03.962Z,1014.28
2018-12-29T05:29:03.988Z,1014.24
2018-12-29T05:30:04.011Z,1014.30
2018-12-29T05:31:04.050Z,1014.33
2018-12-29T05:32:04.058Z,1014.40
2018-12-29T05:33:04.082Z,1014.41
2018-12-29T05:34:04.157Z,1014.37
2018-12-29T05:35:04.131Z,1014.38
2018-12-29T05:36:04.155Z,1014.39
2018-12-29T05:37:04.180Z,1014.41
2018-12-29T05:38:04.205Z,1014.33
2018-12-29T05:39:04.227Z,1014.34
2018-12-29T05:40:04.254Z,1014.38
2018-12-29T05:41:04.276Z,1014.37
2018-12-29T05:42:04.303Z,1014.42
2018-12-29T05:43:04.325Z,1014.39
2018-12-29T05:44:04.349Z,1014.46
2018-12-29T05:45:04.374Z,1014.50
2018-12-29T05:46:04.396Z,1014.53
2018-12-29T05:47:04.423Z,1014.55
2018-12-29T05:48:04.446Z,1014.59
2018-12-29T05:49:04.469Z,1014.63
2018-12-29T05:50:04.494Z,1014.63
2018-12-29T05:51:04.518Z,1014.70
2018-12-29T05:52:04.540Z,1014.70
2018-12-29T05:53:04.567Z,1014.70
2018-12-29T05:54:04.590Z,1014.69
2018-12-29T05:55:04.617Z,1014.72
2018-12-29T05:56:04.638Z,1014.70
2018-12-29T05:57:04.663Z,1014.69
2018-12-29T05:58:04.687Z,1014.70
2018-12-29T05:59:04.713Z,1014.69
2018-12-29T06:00:04.735Z,1014.67
2018-12-29T06:01:04.760Z,1014.69
2018-12-29T06:02:04.785Z,1014.73
2018-12-29T06:03:04.808Z,1014.71
2018-12-29T06:04:04.832Z,1014.80
2018-12-29T06:05:04.856Z,1014.76
2018-12-29T06:06:04.882Z,1014.76
2018-12-29T06:07:04.932Z,1014.80
2018-12-29T06:08:04.929Z,1014.82
2018-12-29T06:09:04.954Z,1014.82
2018-12-29T06:10:04.979Z,1014.77
2018-12-29T06:11:05.002Z,1014.78
2018-12-29T06:12:05.030Z,1014.79
2018-12-29T06:13:05.054Z,1014.83
2018-12-29T06:14:05.078Z,1014.80
2018-12-29T06:15:05.099Z,1014.79
2018-12-29T06:16:05.121Z,1014.77
2018-12-29T06:17:05.146Z,1014.76
2018-12-29T06:18:06.757Z,1014.73
2018-12-29T06:19:05.199Z,1014.79
2018-12-29T06:20:05.287Z,1014.78
2018-12-29T06:21:05.243Z,1014.79
2018-12-29T06:22:05.268Z,1014.78
2018-12-29T06:23:05.292Z,1014.82
2018-12-29T06:24:05.420Z,1014.86
2018-12-29T06:25:05.342Z,1014.77
2018-12-29T06:26:05.365Z,1014.82
2018-12-29T06:27:05.388Z,1014.84
2018-12-29T06:28:05.411Z,1014.84
2018-12-29T06:29:05.436Z,1014.82
2018-12-29T06:30:05.461Z,1014.81
2018-12-29T06:31:05.485Z,1014.80
2018-12-29T06:32:05.509Z,1014.74
2018-12-29T06:33:05.533Z,1014.69
2018-12-29T06:34:05.626Z,1014.68
2018-12-29T06:35:05.582Z,1014.64
2018-12-29T06:36:05.606Z,1014.66
2018-12-29T06:37:05.630Z,1014.62
2018-12-29T06:38:05.656Z,1014.66
2018-12-29T06:39:05.678Z,1014.65
2018-12-29T06:40:05.708Z,1014.69
2018-12-29T06:41:05.729Z,1014.69
2018-12-29T06:42:05.751Z,1014.74
2018-12-29T06:43:05.777Z,1014.77
2018-12-29T06:44:05.801Z,1014.77
2018-12-29T06:45:05.825Z,1014.74
2018-12-29T06:46:05.847Z,1014.77
2018-12-29T06:47:05.873Z,1014.74
2018-12-29T06:48:05.897Z,1014.74
2018-12-29T06:49:05.922Z,1014.72
2018-12-29T06:50:05.945Z,1014.72
2018-12-29T06:51:05.974Z,1014.77
2018-12-29T06:52:05.999Z,1014.77
2018-12-29T06:53:06.018Z,1014.76
2018-12-29T06:54:06.042Z,1014.85
2018-12-29T06:55:06.068Z,1014.86
2018-12-29T06:56:06.092Z,1014.84
2018-12-29T06:57:06.117Z,1014.79
2018-12-29T06:58:06.140Z,1014.77
2018-12-29T06:59:06.165Z,1014.80
2018-12-29T07:00:06.187Z,1014.83
2018-12-29T07:01:06.214Z,1014.81
2018-12-29T07:02:06.239Z,1014.80
2018-12-29T07:03:06.262Z,1014.83
2018-12-29T07:04:06.284Z,1014.79
2018-12-29T07:05:06.359Z,1014.87
2018-12-29T07:06:06.333Z,1014.84
2018-12-29T07:07:06.359Z,1014.84
2018-12-29T07:08:06.382Z,1014.88
2018-12-29T07:09:06.406Z,1014.82
2018-12-29T07:10:06.430Z,1014.82
2018-12-29T07:11:06.457Z,1014.79
2018-12-29T07:12:06.479Z,1014.84
2018-12-29T07:13:06.503Z,1014.84
2018-12-29T07:14:06.530Z,1014.84
2018-12-29T07:15:06.553Z,1014.85
2018-12-29T07:16:06.576Z,1014.84
2018-12-29T07:17:06.600Z,1014.86
2018-12-29T07:18:06.625Z,1014.85
2018-12-29T07:19:06.649Z,1014.83
2018-12-29T07:20:06.673Z,1014.82
2018-12-29T07:21:06.702Z,1014.86
2018-12-29T07:22:06.722Z,1014.87
2018-12-29T07:23:06.746Z,1014.83
2018-12-29T07:24:06.771Z,1014.85
2018-12-29T07:25:06.794Z,1014.80
2018-12-29T07:26:06.857Z,1014.80
2018-12-29T07:27:06.845Z,1014.85
2018-12-29T07:28:06.867Z,1014.87
2018-12-29T07:29:06.892Z,1014.94
2018-12-29T07:30:06.917Z,1014.92
2018-12-29T07:31:06.948Z,1014.95
2018-12-29T07:32:06.966Z,1014.95
2018-12-29T07:33:06.989Z,1014.96
2018-12-29T07:34:07.014Z,1014.97
2018-12-29T07:35:07.037Z,1015.00
2018-12-29T07:36:07.062Z,1015.02
2018-12-29T07:37:07.087Z,1015.09
2018-12-29T07:38:07.110Z,1015.16
2018-12-29T07:39:07.137Z,1015.14
2018-12-29T07:40:07.158Z,1015.11
2018-12-29T07:41:07.183Z,1015.10
2018-12-29T07:42:07.209Z,1015.08
2018-12-29T07:43:07.231Z,1015.11
2018-12-29T07:44:07.255Z,1015.14
2018-12-29T07:45:07.280Z,1015.11
2018-12-29T07:46:07.305Z,1015.13
2018-12-29T07:47:07.329Z,1015.16
2018-12-29T07:48:07.355Z,1015.23
2018-12-29T07:49:07.378Z,1015.27
2018-12-29T07:50:07.403Z,1015.21
2018-12-29T07:51:07.427Z,1015.20
2018-12-29T07:52:07.450Z,1015.18
2018-12-29T07:53:07.474Z,1015.17
2018-12-29T07:54:07.499Z,1015.23
2018-12-29T07:55:07.547Z,1015.24
2018-12-29T07:56:07.554Z,1015.27
2018-12-29T07:57:07.573Z,1015.27
2018-12-29T07:58:07.598Z,1015.31
2018-12-29T07:59:07.622Z,1015.32
2018-12-29T08:00:07.644Z,1015.43
2018-12-29T08:01:07.669Z,1015.42
2018-12-29T08:02:07.694Z,1015.44
2018-12-29T08:03:07.720Z,1015.45
2018-12-29T08:04:07.742Z,1015.43
2018-12-29T08:05:07.767Z,1015.44
2018-12-29T08:06:07.792Z,1015.45
2018-12-29T08:07:07.816Z,1015.47
2018-12-29T08:08:07.840Z,1015.42
2018-12-29T08:09:07.865Z,1015.51
2018-12-29T08:10:07.889Z,1015.52
2018-12-29T08:11:07.914Z,1015.56
2018-12-29T08:12:07.937Z,1015.51
2018-12-29T08:13:07.962Z,1015.51
2018-12-29T08:14:07.987Z,1015.45
2018-12-29T08:15:08.011Z,1015.43
2018-12-29T08:16:08.036Z,1015.48
2018-12-29T08:17:08.059Z,1015.49
2018-12-29T08:18:08.086Z,1015.48
2018-12-29T08:19:08.111Z,1015.51
2018-12-29T08:20:08.182Z,1015.43
2018-12-29T08:21:08.160Z,1015.52
2018-12-29T08:22:08.183Z,1015.49
2018-12-29T08:23:08.208Z,1015.45
2018-12-29T08:24:08.231Z,1015.46
2018-12-29T08:25:08.256Z,1015.44
2018-12-29T08:26:08.281Z,1015.39
2018-12-29T08:27:08.304Z,1015.41
2018-12-29T08:28:08.329Z,1015.43
2018-12-29T08:29:08.355Z,1015.43
2018-12-29T08:30:08.380Z,1015.44
2018-12-29T08:31:08.404Z,1015.48
2018-12-29T08:32:08.428Z,1015.49
2018-12-29T08:33:08.452Z,1015.53
2018-12-29T08:34:08.476Z,1015.51
2018-12-29T08:35:08.502Z,1015.55
2018-12-29T08:36:08.526Z,1015.59
2018-12-29T08:37:08.551Z,1015.58
2018-12-29T08:38:08.576Z,1015.62
2018-12-29T08:39:08.602Z,1015.63
2018-12-29T08:40:08.624Z,1015.58
2018-12-29T08:41:08.649Z,1015.62
2018-12-29T08:42:08.675Z,1015.62
2018-12-29T08:43:08.700Z,1015.63
2018-12-29T08:44:08.723Z,1015.65
2018-12-29T08:45:08.748Z,1015.64
2018-12-29T08:46:08.773Z,1015.69
2018-12-29T08:47:08.798Z,1015.68
2018-12-29T08:48:08.822Z,1015.76
2018-12-29T08:49:08.847Z,1015.69
2018-12-29T08:50:12.935Z,1015.75
2018-12-29T08:51:08.899Z,1015.80
2018-12-29T08:52:08.922Z,1015.76
2018-12-29T08:53:08.948Z,1015.75
2018-12-29T08:54:08.972Z,1015.77
2018-12-29T08:55:08.999Z,1015.74
2018-12-29T08:56:09.022Z,1015.73
2018-12-29T08:57:09.047Z,1015.75
2018-12-29T08:58:09.072Z,1015.73
2018-12-29T08:59:09.099Z,1015.77
2018-12-29T09:00:09.124Z,1015.78
2018-12-29T09:01:09.148Z,1015.74
2018-12-29T09:02:09.175Z,1015.79
2018-12-29T09:03:09.201Z,1015.80
2018-12-29T09:04:09.221Z,1015.88
2018-12-29T09:05:09.246Z,1015.86
2018-12-29T09:06:09.272Z,1015.87
2018-12-29T09:07:09.298Z,1015.88
2018-12-29T09:08:09.321Z,1015.90
2018-12-29T09:09:09.348Z,1015.88
2018-12-29T09:10:09.375Z,1015.90
2018-12-29T09:11:09.398Z,1015.91
2018-12-29T09:12:09.423Z,1015.91
2018-12-29T09:13:09.447Z,1015.93
2018-12-29T09:14:09.473Z,1015.94
2018-12-29T09:15:09.498Z,1015.99
2018-12-29T09:16:09.524Z,1016.00
2018-12-29T09:17:12.228Z,1016.03
2018-12-29T09:18:09.577Z,1016.02
2018-12-29T09:19:09.600Z,1016.05
2018-12-29T09:20:09.624Z,1016.09
2018-12-29T09:21:09.649Z,1016.07
2018-12-29T09:22:09.675Z,1016.05
2018-12-29T09:23:09.701Z,1016.10
2018-12-29T09:24:09.723Z,1016.06
2018-12-29T09:25:09.751Z,1016.09
2018-12-29T09:26:09.777Z,1016.08
2018-12-29T09:27:09.802Z,1016.08
2018-12-29T09:28:09.828Z,1016.08
2018-12-29T09:29:09.854Z,1016.07
2018-12-29T09:30:09.877Z,1016.06
2018-12-29T09:31:09.904Z,1016.07
2018-12-29T09:32:09.928Z,1016.10
2018-12-29T09:33:09.953Z,1016.10
2018-12-29T09:34:09.983Z,1016.13
2018-12-29T09:35:10.006Z,1016.16
2018-12-29T09:36:10.029Z,1016.13
2018-12-29T09:37:10.056Z,1016.13
2018-12-29T09:38:10.081Z,1016.11
2018-12-29T09:39:10.108Z,1016.15
2018-12-29T09:40:10.132Z,1016.11
2018-12-29T09:41:10.160Z,1016.11
2018-12-29T09:42:10.188Z,1016.07
2018-12-29T09:43:10.212Z,1015.99
2018-12-29T09:44:10.236Z,1016.07
2018-12-29T09:45:10.264Z,1016.03
2018-12-29T09:46:10.288Z,1016.07
2018-12-29T09:47:10.319Z,1016.03
2018-12-29T09:48:10.340Z,1016.02
2018-12-29T09:49:10.367Z,1016.00
2018-12-29T09:50:10.396Z,1015.98
2018-12-29T09:51:10.419Z,1016.01
2018-12-29T09:52:10.444Z,1016.01
2018-12-29T09:53:10.472Z,1016.02
2018-12-29T09:54:10.499Z,1016.06
2018-12-29T09:55:10.525Z,1016.04
2018-12-29T09:56:10.549Z,1016.07
2018-12-29T09:57:10.579Z,1016.02
2018-12-29T09:58:10.603Z,1016.06
2018-12-29T09:59:10.631Z,1016.02
2018-12-29T10:00:10.659Z,1016.01
2018-12-29T10:01:10.682Z,1016.02
2018-12-29T10:02:10.710Z,1015.96
2018-12-29T10:03:10.736Z,1015.92
2018-12-29T10:04:10.763Z,1015.90
2018-12-29T10:05:10.789Z,1015.84
2018-12-29T10:06:10.817Z,1015.94
2018-12-29T10:07:10.845Z,1016.16
2018-12-29T10:08:10.870Z,1015.93
2018-12-29T10:09:10.896Z,1015.82
2018-12-29T10:10:10.925Z,1015.88
2018-12-29T10:11:10.955Z,1015.81
2018-12-29T10:12:10.979Z,1015.83
2018-12-29T10:13:11.006Z,1015.79
2018-12-29T10:14:11.034Z,1015.82
2018-12-29T10:15:11.063Z,1016.04
2018-12-29T10:16:11.088Z,1015.93
2018-12-29T10:17:11.118Z,1016.20
2018-12-29T10:18:11.146Z,1015.89
2018-12-29T10:19:11.173Z,1015.79
2018-12-29T10:20:11.200Z,1015.79
2018-12-29T10:21:11.228Z,1015.75
2018-12-29T10:22:11.257Z,1015.76
2018-12-29T10:23:11.286Z,1015.73
2018-12-29T10:24:11.314Z,1015.76
2018-12-29T10:25:11.341Z,1015.77
2018-12-29T10:26:11.369Z,1015.76
2018-12-29T10:27:11.398Z,1015.74
2018-12-29T10:28:12.756Z,1015.73
2018-12-29T10:29:11.453Z,1015.74
2018-12-29T10:30:11.482Z,1015.74
2018-12-29T10:31:11.509Z,1015.75
2018-12-29T10:32:11.537Z,1015.73
2018-12-29T10:33:11.566Z,1015.68
2018-12-29T10:34:11.593Z,1015.66
2018-12-29T10:35:11.623Z,1015.65
2018-12-29T10:36:11.648Z,1015.65
2018-12-29T10:37:11.678Z,1015.67
2018-12-29T10:38:11.705Z,1015.66
2018-12-29T10:39:11.732Z,1015.66
2018-12-29T10:40:11.759Z,1015.67
2018-12-29T10:41:11.787Z,1015.69
2018-12-29T10:42:11.815Z,1015.68
2018-12-29T10:43:11.844Z,1015.72
2018-12-29T10:44:11.870Z,1015.70
2018-12-29T10:45:11.897Z,1015.65
2018-12-29T10:46:11.926Z,1015.61
2018-12-29T10:47:11.953Z,1015.58
2018-12-29T10:48:11.980Z,1015.60
2018-12-29T10:49:12.008Z,1015.60
2018-12-29T10:50:12.036Z,1015.60
2018-12-29T10:51:12.063Z,1015.58
2018-12-29T10:52:12.090Z,1015.56
2018-12-29T10:53:12.119Z,1015.58
2018-12-29T10:54:12.152Z,1015.65
2018-12-29T10:55:12.177Z,1015.57
2018-12-29T10:56:12.202Z,1015.58
2018-12-29T10:57:12.229Z,1015.55
2018-12-29T10:58:12.257Z,1015.54
2018-12-29T10:59:12.285Z,1015.55
2018-12-29T11:00:12.550Z,1015.55
2018-12-29T11:01:12.339Z,1015.51
2018-12-29T11:02:12.369Z,1015.48
2018-12-29T11:03:12.397Z,1015.46
2018-12-29T11:04:12.507Z,1015.46
2018-12-29T11:05:12.452Z,1015.50
2018-12-29T11:06:12.482Z,1015.52
2018-12-29T11:07:12.507Z,1015.42
2018-12-29T11:08:12.534Z,1015.46
2018-12-29T11:09:12.563Z,1015.44
2018-12-29T11:10:12.590Z,1015.41
2018-12-29T11:11:12.620Z,1015.46
2018-12-29T11:12:12.646Z,1015.45
2018-12-29T11:13:12.674Z,1015.45
2018-12-29T11:14:12.701Z,1015.39
2018-12-29T11:15:12.731Z,1015.41
2018-12-29T11:16:12.758Z,1015.36
2018-12-29T11:17:12.789Z,1015.37
2018-12-29T11:18:12.815Z,1015.34
2018-12-29T11:19:12.843Z,1015.32
2018-12-29T11:20:12.870Z,1015.36
2018-12-29T11:21:12.898Z,1015.40
2018-12-29T11:22:12.927Z,1015.43
2018-12-29T11:23:12.953Z,1015.42
2018-12-29T11:24:12.981Z,1015.42
2018-12-29T11:25:13.008Z,1015.38
2018-12-29T11:26:13.038Z,1015.40
2018-12-29T11:27:13.064Z,1015.38
2018-12-29T11:28:13.091Z,1015.39
2018-12-29T11:29:13.120Z,1015.40
2018-12-29T11:30:13.147Z,1015.43
2018-12-29T11:31:13.173Z,1015.39
2018-12-29T11:32:13.204Z,1015.36
2018-12-29T11:33:13.228Z,1015.35
2018-12-29T11:34:13.255Z,1015.34
2018-12-29T11:35:13.284Z,1015.28
2018-12-29T11:36:13.310Z,1015.33
2018-12-29T11:37:13.338Z,1015.32
2018-12-29T11:38:13.364Z,1015.25
2018-12-29T11:39:13.391Z,1015.32
2018-12-29T11:40:13.417Z,1015.20
2018-12-29T11:41:13.444Z,1015.24
2018-12-29T11:42:13.473Z,1015.21
2018-12-29T11:43:13.502Z,1015.17
2018-12-29T11:44:13.526Z,1015.20
2018-12-29T11:45:13.555Z,1015.15
2018-12-29T11:46:13.581Z,1015.18
2018-12-29T11:47:13.607Z,1015.12
2018-12-29T11:48:13.633Z,1015.06
2018-12-29T11:49:18.007Z,1015.03
2018-12-29T11:50:13.686Z,1015.01
2018-12-29T11:51:13.713Z,1015.03
2018-12-29T11:52:13.743Z,1015.00
2018-12-29T11:53:13.767Z,1014.91
2018-12-29T11:54:13.794Z,1014.87
2018-12-29T11:55:13.822Z,1014.83
2018-12-29T11:56:13.848Z,1014.81
2018-12-29T11:57:13.879Z,1014.80
2018-12-29T11:58:13.903Z,1014.75
2018-12-29T11:59:13.928Z,1014.79
2018-12-29T12:00:13.956Z,1014.75
2018-12-29T12:01:14.835Z,1014.72
2018-12-29T12:02:14.009Z,1014.75
2018-12-29T12:03:14.044Z,1014.76
2018-12-29T12:04:14.062Z,1014.73
2018-12-29T12:05:14.097Z,1014.74
2018-12-29T12:06:14.118Z,1014.76